.
WxDataArchive / Data Records for 2009-01-09
2009-01-08 January 2009 2009-01-10

Data Records for Friday, 09 January 2009

Time	Temp	Chill	HIndex	Humid	Dewpt	 Wind 	HiWind	WindDir	Rain 	Barom 
-----	----	-----	------	-----	-----	------	------	-------	-----	----- 
00:00	15.6	15.6	15.6	81	10.8	1	5	248	0.00	30.083 
00:05	15.6	15.6	15.6	81	10.8	1	3	248	0.00	30.081 
00:10	15.6	15.6	15.6	81	10.8	1	4	248	0.00	30.081 
00:15	15.6	15.6	15.6	81	10.8	1	4	248	0.00	30.082 
00:20	15.6	15.6	15.6	81	10.8	1	5	248	0.00	30.081 
00:25	15.6	15.6	15.6	81	10.8	2	4	248	0.00	30.080 
00:30	15.4	15.4	15.4	81	10.6	2	4	248	0.00	30.081 
00:35	15.4	15.4	15.4	82	10.9	2	7	248	0.00	30.082 
00:40	15.4	15.4	15.4	81	10.6	1	5	248	0.00	30.082 
00:45	15.4	15.4	15.4	81	10.6	1	3	248	0.00	30.081 
00:50	15.4	15.4	15.4	81	10.6	2	5	248	0.00	30.082 
00:55	15.4	15.4	15.4	81	10.6	2	7	248	0.00	30.082 
01:00	15.2	15.2	15.2	81	10.4	1	3	248	0.00	30.084 
01:05	15.2	15.2	15.2	81	10.4	1	4	248	0.00	30.084 
01:10	15.2	15.2	15.2	81	10.4	1	3	248	0.00	30.085 
01:15	15.1	15.1	15.1	81	10.3	1	3	248	0.00	30.087 
01:20	15.1	15.1	15.1	81	10.3	1	3	248	0.00	30.090 
01:25	15.1	15.1	15.1	81	10.3	0	2	248	0.00	30.094 
01:30	15.1	15.1	15.1	81	10.3	1	3	248	0.00	30.095 
01:35	15.1	15.1	15.1	81	10.3	1	3	248	0.00	30.096 
01:40	14.9	14.9	14.9	81	10.1	1	3	248	0.00	30.097 
01:45	14.9	14.9	14.9	81	10.1	1	3	248	0.00	30.098 
01:50	14.9	14.9	14.9	81	10.1	0	2	248	0.00	30.098 
01:55	14.8	14.8	14.8	81	10.0	0	2	248	0.00	30.099 
02:00	14.8	14.8	14.8	81	10.0	1	3	248	0.00	30.100 
02:05	14.8	14.8	14.8	81	10.0	0	1	248	0.00	30.100 
02:10	14.8	14.8	14.8	81	10.0	1	3	248	0.00	30.102 
02:15	14.8	14.8	14.8	81	10.0	1	4	248	0.00	30.100 
02:20	14.8	14.8	14.8	81	10.0	1	4	248	0.00	30.100 
02:25	14.8	14.8	14.8	81	10.0	0	2	248	0.00	30.106 
02:30	14.8	14.8	14.8	81	10.0	0	1	248	0.00	30.109 
02:35	14.6	14.6	14.6	81	9.9	0	2	248	0.00	30.110 
02:40	14.6	14.6	14.6	81	9.9	0	1	248	0.00	30.111 
02:45	14.6	14.6	14.6	81	9.9	0	3	248	0.00	30.113 
02:50	14.6	14.6	14.6	81	9.9	0	2	248	0.00	30.110 
02:55	14.6	14.6	14.6	81	9.9	1	3	248	0.00	30.112 
03:00	14.6	14.6	14.6	81	9.9	0	2	248	0.00	30.114 
03:05	14.4	14.4	14.4	81	9.7	0	2	248	0.00	30.117 
03:10	14.4	14.4	14.4	81	9.7	0	2	248	0.00	30.117 
03:15	14.4	14.4	14.4	81	9.7	0	1	248	0.00	30.120 
03:20	14.3	14.3	14.3	81	9.6	0	2	248	0.00	30.127 
03:25	14.4	14.4	14.4	81	9.7	1	3	248	0.00	30.125 
03:30	14.6	14.6	14.6	81	9.9	1	4	248	0.00	30.121 
03:35	14.6	14.6	14.6	81	9.9	1	2	248	0.00	30.118 
03:40	14.6	14.6	14.6	81	9.9	0	3	248	0.00	30.116 
03:45	14.6	14.6	14.6	81	9.9	0	3	248	0.00	30.117 
03:50	14.6	14.6	14.6	81	9.9	1	2	248	0.00	30.121 
03:55	14.6	14.6	14.6	81	9.9	0	3	248	0.00	30.121 
04:00	14.4	14.4	14.4	82	9.9	0	3	248	0.00	30.122 
04:05	14.4	14.4	14.4	82	9.9	0	3	248	0.00	30.119 
04:10	14.4	14.4	14.4	82	9.9	0	2	248	0.00	30.125 
04:15	14.3	14.3	14.3	82	9.8	0	2	248	0.00	30.119 
04:20	14.3	14.3	14.3	82	9.8	0	2	248	0.00	30.126 
04:25	14.1	14.1	14.1	83	9.9	0	1	248	0.00	30.125 
04:30	14.1	14.1	14.1	83	9.9	0	1	248	0.00	30.128 
04:35	14.1	14.1	14.1	83	9.9	0	3	248	0.00	30.130 
04:40	14.1	14.1	14.1	84	10.2	0	2	248	0.00	30.131 
04:45	14.1	14.1	14.1	84	10.2	0	3	248	0.00	30.131 
04:50	14.3	14.3	14.3	84	10.4	0	2	248	0.00	30.131 
04:55	14.3	14.3	14.3	84	10.4	0	2	248	0.00	30.133 
05:00	14.3	14.3	14.3	84	10.4	0	1	248	0.00	30.133 
05:05	14.3	14.3	14.3	84	10.4	0	1	248	0.00	30.136 
05:10	14.3	14.3	14.3	84	10.4	0	2	248	0.00	30.143 
05:15	14.3	14.3	14.3	84	10.4	0	1	248	0.00	30.148 
05:20	14.4	14.4	14.4	84	10.5	0	2	248	0.00	30.148 
05:25	14.6	14.6	14.6	84	10.7	1	3	248	0.00	30.147 
05:30	14.8	14.8	14.8	85	11.1	0	2	248	0.00	30.147 
05:35	14.9	14.9	14.9	85	11.2	0	0	---	0.00	30.146 
05:40	15.1	15.1	15.1	85	11.4	0	1	248	0.00	30.148 
05:45	15.2	15.2	15.2	85	11.5	0	2	248	0.00	30.150 
05:50	15.6	15.6	15.6	85	11.9	0	3	248	0.00	30.149 
05:55	15.7	15.7	15.7	85	12.0	0	2	248	0.00	30.149 
06:00	15.9	15.9	15.9	85	12.2	0	2	248	0.00	30.148 
06:05	16.1	16.1	16.1	84	12.1	0	1	248	0.00	30.147 
06:10	16.2	16.2	16.2	84	12.2	0	2	248	0.00	30.148 
06:15	16.4	16.4	16.4	84	12.4	1	3	248	0.00	30.150 
06:20	16.5	16.5	16.5	84	12.5	1	2	248	0.00	30.147 
06:25	16.7	16.7	16.7	84	12.7	0	2	248	0.00	30.147 
06:30	16.7	16.7	16.7	84	12.7	0	2	248	0.00	30.146 
06:35	16.7	16.7	16.7	84	12.7	0	0	---	0.00	30.149 
06:40	16.9	16.9	16.9	84	12.9	0	1	248	0.00	30.151 
06:45	16.9	16.9	16.9	84	12.9	0	1	248	0.00	30.155 
06:50	16.9	16.9	16.9	83	12.6	0	2	248	0.00	30.155 
06:55	16.9	16.9	16.9	84	12.9	0	2	248	0.00	30.155 
07:00	16.9	16.9	16.9	84	12.9	0	3	248	0.00	30.159 
07:05	17.0	17.0	17.0	83	12.7	1	3	248	0.00	30.161 
07:10	17.0	17.0	17.0	83	12.7	1	3	248	0.00	30.164 
07:15	17.0	17.0	17.0	83	12.7	0	4	248	0.00	30.167 
07:20	17.2	17.2	17.2	83	12.9	0	2	248	0.00	30.171 
07:25	17.2	17.2	17.2	84	13.2	1	3	248	0.00	30.175 
07:30	17.2	17.2	17.2	83	12.9	0	2	248	0.00	30.175 
07:35	17.3	17.3	17.3	84	13.3	0	1	248	0.00	30.176 
07:40	17.3	17.3	17.3	84	13.3	0	1	248	0.00	30.175 
07:45	17.3	17.3	17.3	84	13.3	0	1	248	0.00	30.175 
07:50	17.5	17.5	17.5	84	13.5	0	1	248	0.00	30.174 
07:55	17.5	17.5	17.5	84	13.5	0	2	248	0.00	30.171 
08:00	17.5	17.5	17.5	84	13.5	0	0	---	0.00	30.168 
08:05	17.7	17.7	17.7	84	13.7	0	1	248	0.00	30.165 
08:10	17.7	17.7	17.7	84	13.7	0	1	248	0.00	30.161 
08:15	17.8	17.8	17.8	84	13.8	0	1	248	0.00	30.161 
08:20	17.8	17.8	17.8	84	13.8	0	1	248	0.00	30.168 
08:25	17.8	17.8	17.8	84	13.8	0	1	248	0.00	30.171 
08:30	18.0	18.0	18.0	84	14.0	0	1	248	0.00	30.172 
08:35	18.1	18.1	18.1	84	14.1	0	1	248	0.00	30.174 
08:40	18.3	18.3	18.3	84	14.3	0	1	248	0.00	30.176 
08:45	18.4	18.4	18.4	84	14.4	0	0	---	0.00	30.179 
08:50	18.6	18.6	18.6	84	14.6	0	1	248	0.00	30.185 
08:55	18.8	18.8	18.8	84	14.8	0	0	---	0.00	30.187 
09:00	18.9	18.9	18.9	84	14.9	0	1	248	0.00	30.190 
09:05	19.1	19.1	19.1	84	15.1	0	2	248	0.00	30.194 
09:10	19.2	19.2	19.2	84	15.2	0	1	248	0.00	30.192 
09:15	19.4	19.4	19.4	84	15.4	0	0	---	0.00	30.191 
09:20	19.5	19.5	19.5	84	15.5	0	1	248	0.00	30.192 
09:25	19.5	19.5	19.5	83	15.2	0	0	---	0.00	30.191 
09:30	19.7	19.7	19.7	83	15.4	0	1	248	0.00	30.190 
09:35	19.9	19.9	19.9	83	15.6	0	1	248	0.00	30.190 
09:40	20.0	20.0	20.0	84	16.0	0	2	248	0.00	30.189 
09:45	20.2	20.2	20.2	84	16.2	0	1	248	0.00	30.190 
09:50	20.2	20.2	20.2	84	16.2	0	1	248	0.00	30.190 
09:55	20.3	20.3	20.3	84	16.3	0	2	248	0.00	30.188 
10:00	20.3	20.3	20.3	84	16.3	0	2	248	0.00	30.188 
10:05	20.5	20.5	20.5	84	16.4	0	1	248	0.00	30.191 
10:10	20.6	20.6	20.6	84	16.5	0	1	248	0.00	30.192 
10:15	20.8	20.8	20.8	84	16.7	0	1	248	0.00	30.190 
10:20	21.0	21.0	21.0	85	17.2	0	1	248	0.00	30.191 
10:25	21.0	21.0	21.0	85	17.2	0	1	248	0.00	30.191 
10:30	21.1	21.1	21.1	85	17.3	0	1	248	0.00	30.192 
10:35	21.3	21.3	21.3	85	17.5	0	2	248	0.00	30.192 
10:40	21.4	21.4	21.4	86	17.9	0	1	248	0.00	30.193 
10:45	21.8	21.8	21.8	86	18.3	0	1	248	0.00	30.192 
10:50	21.9	21.9	21.9	86	18.4	0	2	112	0.00	30.192 
10:55	22.1	22.1	22.1	86	18.6	0	3	112	0.00	30.191 
11:00	22.1	22.1	22.1	86	18.6	1	3	112	0.00	30.190 
11:05	22.2	22.2	22.2	86	18.7	0	2	112	0.00	30.190 
11:10	22.4	22.4	22.4	86	18.9	0	1	112	0.00	30.190 
11:15	22.5	22.5	22.5	86	19.0	0	1	112	0.00	30.191 
11:20	22.7	22.7	22.7	86	19.2	0	1	112	0.00	30.191 
11:25	22.9	22.9	22.9	86	19.4	0	1	112	0.00	30.193 
11:30	23.0	23.0	23.0	87	19.7	0	1	112	0.00	30.193 
11:35	23.0	23.0	23.0	87	19.7	0	1	112	0.00	30.195 
11:40	23.2	23.2	23.2	87	19.9	0	2	112	0.00	30.196 
11:45	23.2	23.2	23.2	87	19.9	0	2	112	0.00	30.193 
11:50	23.2	23.2	23.2	87	19.9	0	2	112	0.00	30.191 
11:55	23.3	23.3	23.3	87	20.0	0	1	112	0.00	30.189 
12:00	23.5	23.5	23.5	87	20.2	1	3	112	0.00	30.181 
12:05	23.6	23.6	23.6	87	20.3	0	2	112	0.00	30.182 
12:10	23.6	23.6	23.6	87	20.3	0	1	112	0.00	30.180 
12:15	23.8	23.8	23.8	87	20.5	0	2	112	0.00	30.175 
12:20	23.8	23.8	23.8	88	20.8	0	2	112	0.00	30.174 
12:25	23.8	23.8	23.8	88	20.8	0	2	68	0.00	30.173 
12:30	23.6	23.6	23.6	87	20.3	0	2	90	0.00	30.173 
12:35	23.6	23.6	23.6	88	20.6	0	3	90	0.00	30.166 
12:40	23.5	23.5	23.5	88	20.5	1	2	90	0.00	30.161 
12:45	23.5	23.5	23.5	88	20.5	0	2	90	0.00	30.159 
12:50	23.3	23.3	23.3	88	20.3	2	4	90	0.00	30.157 
12:55	23.5	23.5	23.5	88	20.5	0	2	90	0.00	30.157 
13:00	23.6	23.6	23.6	88	20.6	1	2	90	0.00	30.156 
13:05	23.6	23.6	23.6	88	20.6	1	3	90	0.00	30.156 
13:10	23.6	23.6	23.6	88	20.6	2	4	90	0.00	30.156 
13:15	23.6	23.6	23.6	88	20.6	2	4	90	0.00	30.149 
13:20	23.8	23.8	23.8	88	20.8	1	3	90	0.00	30.149 
13:25	23.8	23.8	23.8	88	20.8	2	3	90	0.00	30.148 
13:30	23.8	23.8	23.8	88	20.8	1	3	90	0.00	30.145 
13:35	23.8	23.8	23.8	88	20.8	1	3	90	0.00	30.142 
13:40	23.9	23.9	23.9	88	20.9	2	4	90	0.00	30.139 
13:45	23.9	23.9	23.9	88	20.9	2	5	112	0.00	30.131 
13:50	23.9	23.9	23.9	88	20.9	2	5	90	0.00	30.127 
13:55	24.1	24.1	24.1	88	21.1	2	5	90	0.00	30.127 
14:00	24.2	24.2	24.2	88	21.2	3	9	90	0.00	30.127 
14:05	24.2	24.2	24.2	88	21.2	3	6	112	0.00	30.127 
14:10	24.4	24.4	24.4	88	21.4	2	6	112	0.00	30.127 
14:15	24.4	24.4	24.4	87	21.1	3	6	90	0.00	30.129 
14:20	24.5	24.5	24.5	88	21.5	2	4	112	0.00	30.136 
14:25	24.5	24.5	24.5	87	21.2	3	6	90	0.00	30.135 
14:30	24.5	24.5	24.5	87	21.2	3	6	112	0.00	30.127 
14:35	24.5	24.5	24.5	87	21.2	3	6	90	0.00	30.125 
14:40	24.5	24.5	24.5	88	21.5	3	5	112	0.00	30.124 
14:45	24.7	24.7	24.7	88	21.7	2	6	112	0.00	30.121 
14:50	24.7	24.7	24.7	88	21.7	3	6	112	0.00	30.125 
14:55	24.8	24.8	24.8	88	21.8	3	5	90	0.00	30.122 
15:00	24.7	19.6	24.7	88	21.7	4	9	90	0.00	30.124 
15:05	24.7	24.7	24.7	88	21.7	3	6	112	0.00	30.127 
15:10	24.8	24.8	24.8	88	21.8	2	6	112	0.00	30.132 
15:15	25.0	25.0	25.0	88	22.0	3	8	90	0.00	30.142 
15:20	25.0	25.0	25.0	88	22.0	3	6	90	0.00	30.142 
15:25	25.1	25.1	25.1	88	22.1	3	7	90	0.00	30.141 
15:30	25.3	25.3	25.3	88	22.3	3	5	90	0.00	30.130 
15:35	25.3	20.3	25.3	87	22.0	4	10	90	0.00	30.129 
15:40	25.4	25.4	25.4	87	22.1	3	10	112	0.00	30.130 
15:45	25.4	20.5	25.4	87	22.1	4	7	112	0.00	30.128 
15:50	25.4	25.4	25.4	87	22.1	3	7	90	0.00	30.132 
15:55	25.4	20.5	25.4	87	22.1	4	10	90	0.00	30.128 
16:00	25.4	25.4	25.4	87	22.1	3	9	112	0.00	30.127 
16:05	25.4	19.3	25.4	87	22.1	5	10	90	0.00	30.124 
16:10	25.3	19.2	25.3	88	22.3	5	9	90	0.00	30.117 
16:15	25.3	19.2	25.3	88	22.3	5	9	112	0.00	30.116 
16:20	25.3	19.2	25.3	88	22.3	5	11	90	0.00	30.118 
16:25	25.3	20.3	25.3	88	22.3	4	10	112	0.00	30.125 
16:30	25.4	25.4	25.4	88	22.4	3	7	90	0.00	30.126 
16:35	25.4	20.5	25.4	88	22.4	4	7	112	0.00	30.127 
16:40	25.3	19.2	25.3	88	22.3	5	10	90	0.00	30.127 
16:45	25.3	20.3	25.3	88	22.3	4	9	112	0.00	30.126 
16:50	25.3	20.3	25.3	88	22.3	4	9	112	0.00	30.125 
16:55	25.3	20.3	25.3	88	22.3	4	7	90	0.00	30.127 
17:00	25.3	20.3	25.3	88	22.3	4	10	112	0.00	30.126 
17:05	25.3	25.3	25.3	87	22.0	3	9	112	0.00	30.125 
17:10	25.3	20.3	25.3	87	22.0	4	11	90	0.00	30.124 
17:15	25.3	20.3	25.3	87	22.0	4	9	90	0.00	30.124 
17:20	25.3	20.3	25.3	87	22.0	4	7	112	0.00	30.124 
17:25	25.3	25.3	25.3	87	22.0	3	6	90	0.00	30.127 
17:30	25.4	25.4	25.4	87	22.1	2	5	112	0.00	30.135 
17:35	25.3	25.3	25.3	87	22.0	3	6	90	0.00	30.138 
17:40	25.4	25.4	25.4	87	22.1	3	7	112	0.00	30.137 
17:45	25.4	25.4	25.4	87	22.1	3	6	90	0.00	30.138 
17:50	25.4	25.4	25.4	87	22.1	2	7	112	0.00	30.142 
17:55	25.4	25.4	25.4	87	22.1	3	6	90	0.00	30.146 
18:00	25.4	25.4	25.4	87	22.1	2	5	112	0.00	30.143 
18:05	25.4	25.4	25.4	87	22.1	2	5	90	0.00	30.145 
18:10	25.4	25.4	25.4	87	22.1	3	5	90	0.00	30.139 
18:15	25.4	25.4	25.4	87	22.1	3	7	90	0.00	30.140 
18:20	25.4	25.4	25.4	87	22.1	2	7	90	0.00	30.141 
18:25	25.4	25.4	25.4	87	22.1	3	6	90	0.00	30.141 
18:30	25.4	25.4	25.4	87	22.1	3	6	90	0.00	30.143 
18:35	25.4	25.4	25.4	88	22.4	3	7	90	0.00	30.144 
18:40	25.4	25.4	25.4	88	22.4	3	8	112	0.00	30.148 
18:45	25.4	25.4	25.4	88	22.4	2	5	90	0.00	30.147 
18:50	25.4	25.4	25.4	88	22.4	3	8	90	0.00	30.151 
18:55	25.6	20.7	25.6	87	22.3	4	8	90	0.00	30.146 
19:00	25.6	25.6	25.6	88	22.5	3	6	112	0.00	30.143 
19:05	25.6	25.6	25.6	88	22.5	3	7	112	0.00	30.139 
19:10	25.6	25.6	25.6	88	22.5	3	7	112	0.00	30.142 
19:15	25.6	25.6	25.6	88	22.5	3	6	112	0.00	30.143 
19:20	25.6	25.6	25.6	87	22.3	3	7	90	0.00	30.146 
19:25	25.6	25.6	25.6	87	22.3	3	6	112	0.00	30.146 
19:30	25.6	25.6	25.6	87	22.3	3	7	112	0.00	30.146 
19:35	25.6	25.6	25.6	87	22.3	3	6	112	0.00	30.145 
19:40	25.6	25.6	25.6	87	22.3	2	5	90	0.00	30.152 
19:45	25.7	25.7	25.7	87	22.4	2	7	90	0.00	30.157 
19:50	25.7	25.7	25.7	87	22.4	2	5	90	0.00	30.159 
19:55	25.7	25.7	25.7	87	22.4	1	4	90	0.00	30.159 
20:00	25.7	25.7	25.7	87	22.4	2	5	90	0.00	30.156 
20:05	25.7	25.7	25.7	87	22.4	3	7	112	0.00	30.155 
20:10	25.7	25.7	25.7	87	22.4	2	5	90	0.00	30.156 
20:15	25.7	25.7	25.7	87	22.4	2	5	90	0.00	30.154 
20:20	25.7	25.7	25.7	86	22.1	3	7	112	0.00	30.154 
20:25	25.7	25.7	25.7	87	22.4	3	5	112	0.00	30.153 
20:30	25.7	25.7	25.7	87	22.4	3	5	90	0.00	30.152 
20:35	25.7	25.7	25.7	87	22.4	3	6	112	0.00	30.152 
20:40	25.7	25.7	25.7	86	22.1	3	6	90	0.00	30.152 
20:45	25.8	25.8	25.8	86	22.2	3	7	90	0.00	30.153 
20:50	25.8	25.8	25.8	87	22.5	3	6	90	0.00	30.154 
20:55	25.8	25.8	25.8	86	22.2	3	7	90	0.00	30.160 
21:00	25.8	25.8	25.8	86	22.2	3	7	112	0.00	30.158 
21:05	25.8	25.8	25.8	87	22.5	2	5	112	0.00	30.156 
21:10	25.8	25.8	25.8	86	22.2	3	6	112	0.00	30.153 
21:15	25.8	25.8	25.8	86	22.2	3	5	90	0.00	30.152 
21:20	25.8	25.8	25.8	86	22.2	3	7	90	0.00	30.151 
21:25	26.0	26.0	26.0	86	22.4	3	9	112	0.00	30.151 
21:30	26.0	26.0	26.0	86	22.4	2	7	90	0.00	30.151 
21:35	26.0	26.0	26.0	86	22.4	3	6	90	0.00	30.151 
21:40	25.8	25.8	25.8	86	22.2	3	6	90	0.00	30.150 
21:45	25.8	25.8	25.8	86	22.2	3	9	112	0.00	30.148 
21:50	25.8	25.8	25.8	87	22.5	2	5	112	0.00	30.146 
21:55	25.8	25.8	25.8	87	22.5	2	5	112	0.00	30.145 
22:00	25.8	20.9	25.8	87	22.5	4	9	90	0.00	30.143 
22:05	25.7	20.8	25.7	87	22.4	4	7	90	0.00	30.144 
22:10	25.7	25.7	25.7	87	22.4	2	7	90	0.00	30.144 
22:15	25.7	25.7	25.7	87	22.4	2	5	90	0.00	30.142 
22:20	25.7	25.7	25.7	87	22.4	3	6	112	0.00	30.139 
22:25	25.7	25.7	25.7	86	22.1	3	7	90	0.00	30.142 
22:30	25.7	25.7	25.7	86	22.1	1	4	112	0.00	30.141 
22:35	25.6	25.6	25.6	86	22.0	3	6	112	0.00	30.143 
22:40	25.7	25.7	25.7	86	22.1	2	7	112	0.00	30.147 
22:45	25.7	25.7	25.7	86	22.1	2	4	112	0.00	30.145 
22:50	25.7	25.7	25.7	85	21.8	2	8	112	0.00	30.144 
22:55	25.7	25.7	25.7	85	21.8	2	5	90	0.00	30.146 
23:00	25.8	25.8	25.8	84	21.6	3	8	112	0.00	30.146 
23:05	25.8	25.8	25.8	84	21.6	3	9	90	0.00	30.142 
23:10	25.8	25.8	25.8	84	21.6	2	4	112	0.00	30.139 
23:15	25.8	25.8	25.8	84	21.6	2	5	90	0.00	30.141 
23:20	25.8	25.8	25.8	84	21.6	2	6	90	0.00	30.138 
23:25	25.8	25.8	25.8	84	21.6	2	7	112	0.00	30.140 
23:30	25.8	25.8	25.8	85	21.9	2	5	112	0.00	30.134 
23:35	25.7	25.7	25.7	85	21.8	2	5	112	0.00	30.136 
23:40	25.7	25.7	25.7	85	21.8	2	5	90	0.00	30.139 
23:45	25.7	25.7	25.7	85	21.8	2	5	112	0.00	30.141 
23:50	25.8	25.8	25.8	85	21.9	2	6	90	0.00	30.142 
23:55	25.8	25.8	25.8	85	21.9	2	6	90	0.00	30.144 

CoCoRaHS
IN-AL-39
A2 Web Hosting
Creative Commons License
GoDaddy
search engine by freefind advanced

loaded 2018-11-22 06:25:10 • last modified 2010-11-18 10:43:29
Privacy PolicyDisclaimer
• wx.awcolley.com is powered by PmWiki v.2002016 •
• all content (unless otherwise noted) © 2018 A W Colley